SCOT36 YBOK-YBOK
Flight info
| Callsign | SCOT36 |
|---|---|
| Flight time | 0h 1m |
| Altitude | 2500 |
| Route | DCT YBOK |
| Aircraft | H135/L-SDFGRY/LB1 |
Departure
| Time | 2026-04-26 05:13 |
|---|---|
| Airport | Oakey Army Aviation Centre (YBOK) |
Arrival
| Time | 2026-04-26 05:15 |
|---|---|
| Airport | Oakey Army Aviation Centre (YBOK) |
| Time | Latitude | Longitude | Altitude | Speed | Heading |
|---|---|---|---|---|---|
| 2026-04-26 05:05 | -27.41291 | 151.73409 | 1334 ft | 0 kts | 98° |
| 2026-04-26 05:06 | -27.41292 | 151.73410 | 1341 ft | 0 kts | 95° |
| 2026-04-26 05:07 | -27.41293 | 151.73410 | 1351 ft | 1 kts | 95° |
| 2026-04-26 05:07 | -27.41293 | 151.73415 | 1354 ft | 0 kts | 95° |
| 2026-04-26 05:07 | -27.41292 | 151.73415 | 1352 ft | 0 kts | 95° |
| 2026-04-26 05:07 | -27.41293 | 151.73418 | 1351 ft | 0 kts | 96° |
| 2026-04-26 05:08 | -27.41292 | 151.73420 | 1350 ft | 0 kts | 98° |
| 2026-04-26 05:08 | -27.41315 | 151.73412 | 1352 ft | 6 kts | 102° |
| 2026-04-26 05:08 | -27.41328 | 151.73426 | 1353 ft | 3 kts | 101° |
| 2026-04-26 05:08 | -27.41315 | 151.73442 | 1353 ft | 8 kts | 101° |
| 2026-04-26 05:09 | -27.41306 | 151.73433 | 1357 ft | 3 kts | 102° |
| 2026-04-26 05:09 | -27.41298 | 151.73401 | 1357 ft | 4 kts | 106° |
| 2026-04-26 05:09 | -27.41291 | 151.73396 | 1357 ft | 1 kts | 104° |
| 2026-04-26 05:09 | -27.41300 | 151.73404 | 1358 ft | 4 kts | 10° |
| 2026-04-26 05:10 | -27.41301 | 151.73405 | 1359 ft | 0 kts | 102° |
| 2026-04-26 05:10 | -27.41293 | 151.73406 | 1358 ft | 1 kts | 103° |
| 2026-04-26 05:10 | -27.41290 | 151.73410 | 1357 ft | 1 kts | 103° |
| 2026-04-26 05:10 | -27.41291 | 151.73411 | 1357 ft | 0 kts | 103° |
| 2026-04-26 05:11 | -27.41291 | 151.73413 | 1357 ft | 0 kts | 103° |
| 2026-04-26 05:11 | -27.41292 | 151.73425 | 1358 ft | 5 kts | 101° |
| 2026-04-26 05:11 | -27.41253 | 151.73452 | 1352 ft | 10 kts | 6° |
| 2026-04-26 05:11 | -27.41185 | 151.73468 | 1356 ft | 13 kts | 14° |
| 2026-04-26 05:12 | -27.41123 | 151.73481 | 1346 ft | 2 kts | 24° |
| 2026-04-26 05:12 | -27.41122 | 151.73481 | 1348 ft | 1 kts | 27° |
| 2026-04-26 05:12 | -27.41120 | 151.73483 | 1351 ft | 0 kts | 27° |
| 2026-04-26 05:12 | -27.41086 | 151.73498 | 1354 ft | 9 kts | 73° |
| 2026-04-26 05:13 | -27.41083 | 151.73578 | 1360 ft | 25 kts | 105° |
| 2026-04-26 05:13 | -27.41110 | 151.73861 | 1594 ft | 45 kts | 102° |
| 2026-04-26 05:13 | -27.40904 | 151.74201 | 1867 ft | 71 kts | 24° |
| 2026-04-26 05:13 | -27.40355 | 151.74206 | 2060 ft | 84 kts | 10° |
| 2026-04-26 05:14 | -27.39822 | 151.74023 | 2118 ft | 84 kts | 304° |
| 2026-04-26 05:14 | -27.39710 | 151.73315 | 2042 ft | 100 kts | 275° |
| 2026-04-26 05:14 | -27.39675 | 151.72508 | 1974 ft | 106 kts | 268° |
| 2026-04-26 05:14 | -27.39970 | 151.71875 | 1906 ft | 86 kts | 201° |
| 2026-04-26 05:15 | -27.40535 | 151.71745 | 1762 ft | 83 kts | 179° |
| 2026-04-26 05:15 | -27.40873 | 151.72041 | 1505 ft | 61 kts | 87° |
| 2026-04-26 05:15 | -27.40898 | 151.72400 | 1413 ft | 29 kts | 105° |
| 2026-04-26 05:15 | -27.40917 | 151.72514 | 1354 ft | 7 kts | 104° |
| 2026-04-26 05:16 | -27.40958 | 151.72794 | 1364 ft | 63 kts | 101° |
| 2026-04-26 05:16 | -27.41040 | 151.73310 | 1426 ft | 61 kts | 100° |
| 2026-04-26 05:16 | -27.41109 | 151.73732 | 1597 ft | 58 kts | 100° |
| 2026-04-26 05:16 | -27.41214 | 151.74238 | 1819 ft | 72 kts | 106° |
| 2026-04-26 05:17 | -27.41362 | 151.74800 | 2017 ft | 80 kts | 105° |
| 2026-04-26 05:17 | -27.41503 | 151.75413 | 2112 ft | 82 kts | 102° |
| 2026-04-26 05:17 | -27.41635 | 151.76043 | 2099 ft | 83 kts | 100° |
| 2026-04-26 05:17 | -27.41721 | 151.76684 | 2077 ft | 83 kts | 94° |
| 2026-04-26 05:18 | -27.41745 | 151.77331 | 2054 ft | 83 kts | 89° |
| 2026-04-26 05:18 | -27.41473 | 151.77831 | 2081 ft | 80 kts | 27° |
| 2026-04-26 05:18 | -27.40935 | 151.77632 | 2144 ft | 95 kts | 314° |
| 2026-04-26 05:18 | -27.40836 | 151.76875 | 2128 ft | 107 kts | 266° |
| 2026-04-26 05:19 | -27.40876 | 151.76019 | 2004 ft | 111 kts | 274° |
| 2026-04-26 05:19 | -27.40706 | 151.75252 | 2005 ft | 92 kts | 318° |
| 2026-04-26 05:19 | -27.40295 | 151.74755 | 1999 ft | 85 kts | 333° |
| 2026-04-26 05:19 | -27.39845 | 151.74327 | 1958 ft | 86 kts | 327° |
| 2026-04-26 05:20 | -27.39418 | 151.73861 | 1948 ft | 84 kts | 298° |
| 2026-04-26 05:20 | -27.39585 | 151.73335 | 1970 ft | 75 kts | 200° |
| 2026-04-26 05:20 | -27.40060 | 151.73514 | 1752 ft | 75 kts | 137° |
| 2026-04-26 05:20 | -27.40400 | 151.73821 | 1605 ft | 52 kts | 152° |
| 2026-04-26 05:21 | -27.40645 | 151.74005 | 1423 ft | 31 kts | 150° |
| 2026-04-26 05:21 | -27.40719 | 151.74063 | 1347 ft | 6 kts | 195° |
| 2026-04-26 05:21 | -27.40760 | 151.74031 | 1350 ft | 10 kts | 243° |
| 2026-04-26 05:21 | -27.40810 | 151.73943 | 1347 ft | 12 kts | 229° |
| 2026-04-26 05:22 | -27.40848 | 151.73893 | 1346 ft | 8 kts | 243° |
| 2026-04-26 05:22 | -27.40888 | 151.73820 | 1348 ft | 10 kts | 237° |
| 2026-04-26 05:22 | -27.40932 | 151.73749 | 1350 ft | 14 kts | 234° |
| 2026-04-26 05:22 | -27.41002 | 151.73639 | 1350 ft | 18 kts | 233° |
| 2026-04-26 05:23 | -27.41070 | 151.73536 | 1346 ft | 16 kts | 233° |
| 2026-04-26 05:23 | -27.41173 | 151.73470 | 1349 ft | 17 kts | 195° |
| 2026-04-26 05:23 | -27.41258 | 151.73450 | 1349 ft | 6 kts | 236° |
| 2026-04-26 05:23 | -27.41260 | 151.73387 | 1349 ft | 8 kts | 256° |
| 2026-04-26 05:24 | -27.41289 | 151.73387 | 1348 ft | 8 kts | 103° |
| 2026-04-26 05:24 | -27.41289 | 151.73399 | 1341 ft | 0 kts | 106° |